Flight Track Log - Related Links

Times and Time Zones

All times are in EDT time to prevent confusion due to time zone crossing. See the RPA3392 flight status page for this flight to view local times or setup timezone preferences in your user account.

Time Position Orientation Groundspeed Altitude Reporting Facility
EDT Latitude Longitude Course Direction KTS MPH feet Rate Location/Type
Sun 07:03:57 PM 44.9167 -93.2333 351° North 168 193 2,100  Level Minneapolis TRACON
Sun 07:04:36 PM 44.9381 -93.2383 351° North 165 190 3,000 1,901 Climbing Minneapolis Center
Sun 07:05:38 PM 44.9903 -93.2067 23° Northeast 219 252 5,300 2,468 Climbing Minneapolis Center
Sun 07:06:40 PM 45.0331 -93.1403 48° Northeast 236 272 8,100 2,806 Climbing Minneapolis Center
Sun 07:07:42 PM 44.9889 -93.0281 119° Southeast 281 323 11,100 2,468 Climbing Minneapolis Center
Sun 07:08:44 PM 44.9356 -92.9244 126° Southeast 325 374 13,200 2,029 Climbing Minneapolis Center
Sun 07:09:58 PM 44.8808 -92.8192 126° Southeast 331 381 15,700 2,190 Climbing Minneapolis Center
Sun 07:11:01 PM 44.8114 -92.6878 127° Southeast 346 398 18,200 2,208 Climbing Minneapolis Center
Sun 07:12:03 PM 44.7503 -92.5750 127° Southeast 359 413 20,300 1,935 Climbing Minneapolis Center
Sun 07:13:05 PM 44.6883 -92.4558 126° Southeast 373 429 22,200 1,935 Climbing Minneapolis Center
Sun 07:14:07 PM 44.6103 -92.3114 127° Southeast 382 440 24,300 1,742 Climbing Minneapolis Center
Sun 07:15:09 PM 44.5447 -92.1878 127° Southeast 391 450 25,800 1,403 Climbing Minneapolis Center
Sun 07:16:11 PM 44.4783 -92.0594 126° Southeast 401 461 27,200 1,258 Climbing Minneapolis Center
Sun 07:17:13 PM 44.4103 -91.9289 126° Southeast 411 473 28,400 1,113 Climbing Minneapolis Center
Sun 07:18:15 PM 44.3453 -91.7928 124° Southeast 420 483 29,500 968 Climbing Minneapolis Center
Sun 07:19:17 PM 44.2914 -91.6447 117° Southeast 428 493 30,400 1,065 Climbing Minneapolis Center
Sun 07:20:19 PM 44.2233 -91.4667 118° Southeast 434 499 31,700 1,113 Climbing Minneapolis Center
Sun 07:21:21 PM 44.1664 -91.3186 118° Southeast 435 501 32,700 968 Climbing Minneapolis Center
Sun 07:22:23 PM 44.1114 -91.1764 118° Southeast 434 499 33,700 968 Climbing Minneapolis Center
Sun 07:23:25 PM 44.0567 -91.0308 118° Southeast 430 495 34,700 629 Climbing Minneapolis Center
Sun 07:24:27 PM 43.9994 -90.8889 119° Southeast 426 490 35,000 131 Climbing Minneapolis Center
Sun 07:25:42 PM 43.9197 -90.6825 118° Southeast 437 503 35,000  Level Minneapolis Center
Sun 07:26:30 PM 43.8725 -90.5661 119° Southeast 437 503 35,000  Level Chicago Center
Sun 07:27:32 PM 43.8153 -90.4192 118° Southeast 435 501 35,000  Level Chicago Center
Sun 07:28:34 PM 43.7792 -90.2656 108° East 439 505 35,000  Level Chicago Center
Sun 07:29:36 PM 43.7439 -90.0742 104° East 439 505 35,000  Level Chicago Center
Sun 07:30:38 PM 43.7128 -89.9092 105° East 443 510 35,000  Level Chicago Center
Sun 07:31:39 PM 43.6817 -89.7461 105° East 440 506 35,000  Level Chicago Center
Sun 07:32:41 PM 43.6506 -89.5847 105° East 437 503 35,000  Level Chicago Center
Sun 07:33:43 PM 43.6197 -89.4236 105° East 433 498 35,000  Level Chicago Center
Sun 07:34:45 PM 43.5883 -89.2619 105° East 434 499 35,000  Level Chicago Center
Sun 07:35:47 PM 43.5519 -89.0736 105° East 435 501 35,000  Level Chicago Center
Sun 07:36:49 PM 43.5206 -88.9128 105° East 435 501 35,000  Level Chicago Center
Sun 07:37:51 PM 43.4881 -88.7506 105° East 438 504 35,000  Level Chicago Center
Sun 07:38:52 PM 43.4569 -88.5933 105° East 441 507 35,000  Level Chicago Center
Sun 07:39:54 PM 43.4186 -88.4122 106° East 445 512 35,000  Level Chicago Center
Sun 07:40:56 PM 43.3867 -88.2472 105° East 440 506 35,000  Level Chicago Center
Sun 07:41:58 PM 43.3539 -88.0878 106° East 436 502 35,000  Level Chicago Center
Sun 07:43:00 PM 43.3214 -87.9272 105° East 437 503 35,000  Level Chicago Center
Sun 07:44:02 PM 43.2828 -87.7397 106° East 437 503 35,000  Level Chicago Center
Sun 07:45:04 PM 43.2489 -87.5808 106° East 435 501 35,000  Level Chicago Center
Sun 07:46:06 PM 43.2156 -87.4206 106° East 438 504 35,000  Level Chicago Center
Sun 07:47:07 PM 43.1811 -87.2614 106° East 438 504 35,000  Level Chicago Center
Sun 07:48:09 PM 43.1461 -87.1033 107° East 437 503 35,000  Level Chicago Center
Sun 07:49:11 PM 43.1117 -86.9453 107° East 435 501 35,000  Level Chicago Center
Sun 07:50:13 PM 43.0781 -86.7875 106° East 434 499 35,000  Level Chicago Center
Sun 07:51:15 PM 43.0358 -86.5986 107° East 434 499 35,000  Level Chicago Center
Sun 07:52:17 PM 43.0014 -86.4411 107° East 434 499 35,000  Level Chicago Center
Sun 07:53:19 PM 42.9664 -86.2867 107° East 432 497 35,000  Level Chicago Center
Sun 07:54:21 PM 42.9308 -86.1333 108° East 431 496 35,000  Level Chicago Center
Sun 07:55:23 PM 42.8969 -85.9797 107° East 433 498 35,000  Level Chicago Center
Sun 07:56:25 PM 42.8556 -85.7950 107° East 433 498 35,000  Level Chicago Center
Sun 07:57:27 PM 42.8197 -85.6400 107° East 433 498 35,000  Level Chicago Center
Sun 07:58:29 PM 42.7822 -85.4847 108° East 434 499 35,000  Level Chicago Center
Sun 07:59:31 PM 42.7322 -85.3369 115° Southeast 432 497 35,000  Level Chicago Center
Sun 08:01:34 PM 42.6161 -85.0100 116° Southeast 437 503 35,000  Level Chicago Center
Sun 08:02:36 PM 42.5639 -84.8617 116° Southeast 436 502 35,000  Level Chicago Center
Sun 08:03:38 PM 42.5100 -84.7156 117° Southeast 435 501 35,000  Level Chicago Center
Sun 08:04:40 PM 42.4572 -84.5672 116° Southeast 438 504 35,000  Level Chicago Center
Sun 08:05:42 PM 42.3917 -84.4358 124° Southeast 424 488 35,000  Level Chicago Center
Sun 08:06:27 PM 42.3136 -84.3350 136° Southeast 427 491 35,000  Level Cleveland Center
Sun 08:07:27 PM 42.2358 -84.2208 133° Southeast 420 483 35,000  Level Cleveland Center
Sun 08:08:27 PM 42.1603 -84.1072 132° Southeast 415 478 35,000  Level Cleveland Center
Sun 08:09:27 PM 42.0825 -83.9883 131° Southeast 415 478 35,000  Level Cleveland Center
Sun 08:10:27 PM 42.0108 -83.8725 130° Southeast 410 472 35,000  Level Cleveland Center
Sun 08:11:27 PM 41.9350 -83.7514 130° Southeast 410 472 35,000  Level Cleveland Center
Sun 08:12:27 PM 41.8631 -83.6364 130° Southeast 410 472 35,000  Level Cleveland Center
Sun 08:13:27 PM 41.7911 -83.5186 129° Southeast 410 472 35,000  Level Cleveland Center
Sun 08:14:27 PM 41.7189 -83.4042 130° Southeast 410 472 35,000  Level Cleveland Center
Sun 08:15:27 PM 41.6444 -83.2869 130° Southeast 410 472 35,000  Level Cleveland Center
Sun 08:16:27 PM 41.5803 -83.1842 130° Southeast 411 473 35,000  Level Cleveland Center
Sun 08:17:27 PM 41.5058 -83.0647 130° Southeast 411 473 35,000  Level Cleveland Center
Sun 08:18:27 PM 41.4289 -82.9483 131° Southeast 411 473 35,000  Level Cleveland Center
Sun 08:19:27 PM 41.3542 -82.8322 131° Southeast 411 473 35,000  Level Cleveland Center
Sun 08:20:27 PM 41.2814 -82.7164 130° Southeast 411 473 35,000  Level Cleveland Center
Sun 08:21:27 PM 41.2042 -82.5978 131° Southeast 416 479 35,000  Level Cleveland Center
Sun 08:22:27 PM 41.1292 -82.4853 131° Southeast 416 479 35,000  Level Cleveland Center
Sun 08:23:27 PM 41.0539 -82.3675 130° Southeast 416 479 35,000  Level Cleveland Center
Sun 08:24:27 PM 40.9764 -82.2525 132° Southeast 416 479 35,000  Level Cleveland Center
Sun 08:25:27 PM 40.8967 -82.1269 130° Southeast 411 473 35,000  Level Cleveland Center
Sun 08:26:27 PM 40.8211 -82.0125 131° Southeast 411 473 35,000  Level Cleveland Center
Sun 08:27:27 PM 40.7433 -81.8986 132° Southeast 411 473 35,000  Level Cleveland Center
Sun 08:28:27 PM 40.6694 -81.7847 131° Southeast 411 473 35,000  Level Cleveland Center
Sun 08:29:27 PM 40.5914 -81.6686 131° Southeast 411 473 35,000  Level Cleveland Center
Sun 08:30:27 PM 40.5175 -81.5553 131° Southeast 411 473 35,000  Level Cleveland Center
Sun 08:31:27 PM 40.4392 -81.4397 132° Southeast 411 473 35,000  Level Cleveland Center
Sun 08:32:27 PM 40.3650 -81.3242 130° Southeast 411 473 35,000  Level Cleveland Center
Sun 08:33:27 PM 40.2883 -81.2119 132° Southeast 411 473 35,000  Level Cleveland Center
Sun 08:34:27 PM 40.2119 -81.0997 132° Southeast 411 473 35,000  Level Cleveland Center
Sun 08:35:27 PM 40.1353 -80.9850 131° Southeast 416 479 35,000  Level Cleveland Center
Sun 08:36:27 PM 40.0669 -80.8597 125° Southeast 417 480 35,000  Level Cleveland Center
Sun 08:37:27 PM 40.0003 -80.7267 123° Southeast 429 494 35,000  Level Cleveland Center
Sun 08:38:27 PM 39.9317 -80.5911 123° Southeast 440 506 35,000  Level Cleveland Center
Sun 08:39:27 PM 39.8669 -80.4558 122° Southeast 445 512 35,000 -250 Level Cleveland Center
Sun 08:40:27 PM 39.7981 -80.3183 123° Southeast 445 512 34,500 -711 Descending Cleveland Center
Sun 08:41:59 PM 39.7031 -80.1336 124° Southeast 465 535 33,200 -880 Descending Washington Center
Sun 08:42:57 PM 39.6372 -80.0003 123° Southeast 460 529 32,300 -908 Descending Washington Center
Sun 08:43:58 PM 39.5714 -79.8614 122° Southeast 455 524 31,400 -1,033 Descending Washington Center
Sun 08:44:59 PM 39.5264 -79.7136 112° Southeast 448 516 30,200 -1,388 Descending Washington Center
Sun 08:45:59 PM 39.4878 -79.5606 108° East 443 510 28,600 -1,563 Descending Washington Center
Sun 08:46:58 PM 39.4489 -79.4108 109° East 443 510 27,100 -1,513 Descending Washington Center
Sun 08:47:58 PM 39.4117 -79.2664 108° East 433 498 25,600 -1,563 Descending Washington Center
Sun 08:48:57 PM 39.3933 -79.1178 99° East 428 493 24,000 -1,537 Descending Washington Center
Sun 08:49:59 PM 39.3872 -78.9669 93° East 415 478 22,500 -1,450 Descending Washington Center
Sun 08:50:57 PM 39.3556 -78.8314 107° East 404 465 21,100 -1,300 Descending Washington Center
Sun 08:51:59 PM 39.3067 -78.7111 118° Southeast 388 447 19,900 -1,350 Descending Washington Center
Sun 08:52:57 PM 39.2556 -78.5883 118° Southeast 382 440 18,400 -1,400 Descending Washington Center
Sun 08:53:59 PM 39.2083 -78.4711 117° Southeast 377 434 17,100 -1,180 Descending Washington Center
Sun 08:54:59 PM 39.1611 -78.3542 117° Southeast 377 434 16,000 -559 Descending Washington Center
Sun 08:55:57 PM 39.1283 -78.2272 108° East 371 427 16,000  Level Washington Center
Sun 08:56:57 PM 39.0978 -78.1031 108° East 365 420 16,000 -500 Level Washington Center
Sun 08:57:57 PM 39.0669 -77.9789 108° East 365 420 15,000 -1,450 Descending Washington Center
Sun 08:58:57 PM 39.0339 -77.8522 109° East 355 409 13,100 -1,672 Descending Washington Center
Sun 08:59:59 PM 39.0086 -77.7553 109° East 323 372 11,600 -1,574 Descending Washington Center
Sun 09:00:59 PM 38.9814 -77.6478 108° East 295 339 9,900 -1,604 Descending Washington Center
Sun 09:01:40 PM 38.9667 -77.5833 106° East 288 331 8,900 -1,111 Descending Potomac TRACON
Sun 09:02:47 PM 38.9667 -77.4667 90° East 282 325 7,900 -614 Descending Potomac TRACON
Sun 09:03:47 PM 39.0000 -77.4000 57° Northeast 234 269 7,600 -474 Descending Potomac TRACON
Sun 09:04:41 PM 39.0333 -77.3500 49° Northeast 222 255 7,000 -684 Descending Potomac TRACON
Sun 09:05:41 PM 39.0667 -77.3000 49° Northeast 205 236 6,300 -992 Descending Potomac TRACON
Sun 09:06:42 PM 39.0333 -77.2500 131° Southeast 179 206 5,000 -1,190 Descending Potomac TRACON
Sun 09:07:42 PM 39.0000 -77.2167 142° Southeast 173 199 3,900 -1,000 Descending Potomac TRACON
Sun 09:08:42 PM 38.9667 -77.1667 131° Southeast 171 197 3,000 -905 Descending Potomac TRACON
Sun 09:09:48 PM 38.9333 -77.1167 131° Southeast 167 192 2,000 -909 Descending Potomac TRACON

Login

Don't have an account? Register now (free) for customized features, flight alerts, and more!